Terminal Aerodrome Forecast
Issued by NWS

Home | Current Version | Previous Version | Text Only | Print | Product List | Glossary On
Versions: 1 2 3 4 5 6 7 8 9 10 11 12 13 14
000
FTUS42 KTBW 171500 AAA
TAFLAL
TAF AMD
KLAL 171520Z 1715/1812 27006KT P6SM -RA VCTS SCT025CB BKN050 OVC080
      TEMPO 1715/1718 3SM RA BKN025
     FM171800 27006KT P6SM VCTS SCT020CB BKN030
     FM180300 18004KT P6SM VCSH SCT035 BKN100
     FM180600 VRB03KT P6SM SCT035 BKN100=

USA.gov is the U.S. government's official web portal to all federal, state and local government web resources and services.